createdAt,value
2023-03-26T00:02:03.000Z,20.838709677419455
2023-03-26T00:04:42.000Z,20.354838709677516
2023-03-26T00:07:23.000Z,20.16129032258074
2023-03-26T00:10:01.000Z,19.870967741935576
2023-03-26T00:12:41.000Z,20.354838709677516
2023-03-26T00:15:20.000Z,20.354838709677516
2023-03-26T00:18:01.000Z,20.741935483871067
2023-03-26T00:20:40.000Z,20.838709677419455
2023-03-26T00:23:19.000Z,21.419354838709783
2023-03-26T00:26:00.000Z,21.806451612903334
2023-03-26T00:28:42.000Z,20.064516129032352
2023-03-26T00:31:25.000Z,21.61290322580656
2023-03-26T00:34:04.000Z,20.064516129032352
2023-03-26T00:36:42.000Z,20.354838709677516
2023-03-26T00:39:23.000Z,21.903225806451722
2023-03-26T00:42:04.000Z,21.322580645161395
2023-03-26T00:44:43.000Z,21.12903225806462
2023-03-26T00:47:27.000Z,20.54838709677429
2023-03-26T00:50:09.000Z,21.03225806451623
2023-03-26T00:52:54.000Z,21.322580645161395
2023-03-26T00:55:36.000Z,20.838709677419455
2023-03-26T00:58:16.000Z,22.8709677419356
2023-03-26T01:00:57.000Z,23.741935483871092
2023-03-26T01:03:39.000Z,23.258064516129153
2023-03-26T01:06:19.000Z,22.774193548387213
2023-03-26T01:09:00.000Z,22.48387096774205
2023-03-26T01:11:42.000Z,22.290322580645274
2023-03-26T01:14:27.000Z,22.38709677419366
2023-03-26T01:17:09.000Z,22.48387096774205
2023-03-26T01:19:49.000Z,22.193548387096886
2023-03-26T01:22:31.000Z,21.806451612903334
2023-03-26T01:25:11.000Z,22.677419354838825
2023-03-26T01:27:50.000Z,22.38709677419366
2023-03-26T01:30:31.000Z,21.903225806451722
2023-03-26T01:33:13.000Z,21.61290322580656
2023-03-26T01:35:54.000Z,21.903225806451722
2023-03-26T01:38:42.000Z,22.096774193548498
2023-03-26T01:41:26.000Z,22.193548387096886
2023-03-26T01:44:06.000Z,22.774193548387213
2023-03-26T01:46:48.000Z,22.290322580645274
2023-03-26T01:49:32.000Z,22.580645161290438
2023-03-26T01:52:15.000Z,22.193548387096886
2023-03-26T01:54:56.000Z,22.096774193548498
2023-03-26T01:57:37.000Z,22.193548387096886
2023-03-26T02:00:16.000Z,22.096774193548498
2023-03-26T02:03:04.000Z,22.48387096774205
2023-03-26T02:05:44.000Z,22.38709677419366
2023-03-26T02:08:25.000Z,22.48387096774205
2023-03-26T02:11:05.000Z,22.677419354838825
2023-03-26T02:13:44.000Z,22.677419354838825
2023-03-26T02:16:32.000Z,23.548387096774317
2023-03-26T02:19:17.000Z,22.677419354838825
2023-03-26T02:21:56.000Z,22.8709677419356
2023-03-26T02:24:38.000Z,20.451612903225904
2023-03-26T02:27:16.000Z,20.354838709677516
2023-03-26T02:29:57.000Z,20.258064516129128
2023-03-26T02:32:38.000Z,20.54838709677429
2023-03-26T02:35:19.000Z,20.54838709677429
2023-03-26T02:37:58.000Z,20.64516129032268
2023-03-26T02:40:39.000Z,20.64516129032268
2023-03-26T02:43:19.000Z,20.838709677419455
2023-03-26T02:46:00.000Z,22.8709677419356
2023-03-26T02:48:40.000Z,23.064516129032377
2023-03-26T02:51:21.000Z,23.258064516129153
2023-03-26T02:54:03.000Z,23.161290322580765
2023-03-26T02:56:43.000Z,23.35483870967754
2023-03-26T02:59:25.000Z,23.258064516129153
2023-03-26T03:02:07.000Z,23.35483870967754
2023-03-26T03:04:50.000Z,23.35483870967754
2023-03-26T03:07:33.000Z,23.258064516129153
2023-03-26T03:10:15.000Z,23.258064516129153
2023-03-26T03:12:55.000Z,23.064516129032377
2023-03-26T03:15:37.000Z,22.8709677419356
2023-03-26T03:18:17.000Z,22.8709677419356
2023-03-26T03:20:57.000Z,21.322580645161395
2023-03-26T03:23:38.000Z,20.741935483871067
2023-03-26T03:26:19.000Z,21.03225806451623
2023-03-26T03:28:59.000Z,21.225806451613007
2023-03-26T03:31:41.000Z,21.03225806451623
2023-03-26T03:34:26.000Z,21.225806451613007
2023-03-26T03:37:09.000Z,21.419354838709783
2023-03-26T03:39:51.000Z,22.096774193548498
2023-03-26T03:42:33.000Z,22.193548387096886
2023-03-26T03:45:13.000Z,22.193548387096886
2023-03-26T03:47:58.000Z,22.38709677419366
2023-03-26T03:50:38.000Z,22.193548387096886
2023-03-26T03:53:18.000Z,21.903225806451722
2023-03-26T03:55:58.000Z,22.290322580645274
2023-03-26T03:58:39.000Z,22.580645161290438
2023-03-26T04:01:20.000Z,22.580645161290438
2023-03-26T04:04:01.000Z,21.903225806451722
2023-03-26T04:06:42.000Z,21.903225806451722
2023-03-26T04:09:21.000Z,21.61290322580656
2023-03-26T04:12:01.000Z,21.709677419354946
2023-03-26T04:14:43.000Z,22.00000000000011
2023-03-26T04:17:24.000Z,21.709677419354946
2023-03-26T04:20:04.000Z,21.709677419354946
2023-03-26T04:22:45.000Z,22.096774193548498
2023-03-26T04:25:27.000Z,21.61290322580656
2023-03-26T04:28:09.000Z,21.709677419354946
2023-03-26T04:30:53.000Z,21.903225806451722
2023-03-26T04:33:36.000Z,22.096774193548498
2023-03-26T04:36:16.000Z,22.580645161290438
2023-03-26T04:38:58.000Z,22.38709677419366
2023-03-26T04:41:38.000Z,22.38709677419366
2023-03-26T04:44:17.000Z,23.35483870967754
2023-03-26T04:46:59.000Z,22.096774193548498
2023-03-26T04:49:40.000Z,23.645161290322704
2023-03-26T04:52:20.000Z,23.45161290322593
2023-03-26T04:55:04.000Z,23.064516129032377
2023-03-26T04:57:43.000Z,22.677419354838825
2023-03-26T05:00:26.000Z,22.48387096774205
2023-03-26T05:03:07.000Z,22.580645161290438
2023-03-26T05:05:47.000Z,22.290322580645274
2023-03-26T05:08:30.000Z,21.61290322580656
2023-03-26T05:11:14.000Z,21.61290322580656
2023-03-26T05:13:54.000Z,21.322580645161395
2023-03-26T05:16:35.000Z,22.193548387096886
2023-03-26T05:19:16.000Z,21.322580645161395
2023-03-26T05:21:56.000Z,21.322580645161395
2023-03-26T05:24:37.000Z,21.419354838709783
2023-03-26T05:27:18.000Z,20.451612903225904
2023-03-26T05:30:00.000Z,20.258064516129128
2023-03-26T05:32:42.000Z,20.354838709677516
2023-03-26T05:35:27.000Z,20.258064516129128
2023-03-26T05:38:07.000Z,20.354838709677516
2023-03-26T05:40:50.000Z,20.354838709677516
2023-03-26T05:43:31.000Z,20.16129032258074
2023-03-26T05:46:13.000Z,20.16129032258074
2023-03-26T05:48:54.000Z,20.16129032258074
2023-03-26T05:51:35.000Z,20.16129032258074
2023-03-26T05:54:22.000Z,20.16129032258074
2023-03-26T05:57:05.000Z,20.258064516129128
2023-03-26T05:59:44.000Z,20.258064516129128
2023-03-26T06:02:25.000Z,20.258064516129128
2023-03-26T06:05:05.000Z,20.258064516129128
2023-03-26T06:07:45.000Z,20.354838709677516
2023-03-26T06:10:26.000Z,20.258064516129128
2023-03-26T06:13:07.000Z,20.354838709677516
2023-03-26T06:15:50.000Z,20.451612903225904
2023-03-26T06:18:31.000Z,20.54838709677429
2023-03-26T06:21:13.000Z,20.64516129032268
2023-03-26T06:23:54.000Z,20.64516129032268
2023-03-26T06:26:38.000Z,20.64516129032268
2023-03-26T06:29:18.000Z,20.64516129032268
2023-03-26T06:31:58.000Z,20.64516129032268
2023-03-26T06:34:42.000Z,20.741935483871067
2023-03-26T06:37:25.000Z,20.64516129032268
2023-03-26T06:40:07.000Z,20.741935483871067
2023-03-26T06:42:47.000Z,20.741935483871067
2023-03-26T06:45:28.000Z,20.64516129032268
2023-03-26T06:48:10.000Z,20.64516129032268
2023-03-26T06:50:50.000Z,20.54838709677429
2023-03-26T06:53:30.000Z,20.64516129032268
2023-03-26T06:56:10.000Z,21.903225806451722
2023-03-26T06:58:49.000Z,21.806451612903334
2023-03-26T07:01:29.000Z,21.709677419354946
2023-03-26T07:04:10.000Z,21.51612903225817
2023-03-26T07:06:51.000Z,21.322580645161395
2023-03-26T07:09:29.000Z,21.419354838709783
2023-03-26T07:12:10.000Z,20.838709677419455
2023-03-26T07:14:50.000Z,21.03225806451623
2023-03-26T07:17:31.000Z,21.806451612903334
2023-03-26T07:20:11.000Z,20.451612903225904
2023-03-26T07:22:50.000Z,20.354838709677516
2023-03-26T07:25:31.000Z,20.54838709677429
2023-03-26T07:28:15.000Z,21.225806451613007
2023-03-26T07:30:57.000Z,20.838709677419455
2023-03-26T07:33:39.000Z,20.354838709677516
2023-03-26T07:36:21.000Z,21.03225806451623
2023-03-26T07:39:02.000Z,20.064516129032352
2023-03-26T07:41:43.000Z,20.354838709677516
2023-03-26T07:44:26.000Z,20.935483870967843
2023-03-26T07:47:09.000Z,20.064516129032352
2023-03-26T07:49:50.000Z,20.064516129032352
2023-03-26T07:52:31.000Z,20.064516129032352
2023-03-26T07:55:13.000Z,19.870967741935576
2023-03-26T07:57:56.000Z,19.870967741935576
2023-03-26T08:00:38.000Z,19.6774193548388
2023-03-26T08:03:19.000Z,19.870967741935576
2023-03-26T08:05:58.000Z,19.967741935483964
2023-03-26T08:08:40.000Z,19.77419354838719
2023-03-26T08:11:22.000Z,19.6774193548388
2023-03-26T08:14:02.000Z,19.870967741935576
2023-03-26T08:16:43.000Z,19.77419354838719
2023-03-26T08:19:27.000Z,19.580645161290413
2023-03-26T08:22:05.000Z,20.16129032258074
2023-03-26T08:24:45.000Z,19.870967741935576
2023-03-26T08:27:27.000Z,19.77419354838719
2023-03-26T08:30:09.000Z,19.77419354838719
2023-03-26T08:32:51.000Z,19.483870967742025
2023-03-26T08:35:33.000Z,19.387096774193637
2023-03-26T08:38:15.000Z,19.387096774193637
2023-03-26T08:40:56.000Z,19.483870967742025
2023-03-26T08:43:39.000Z,19.387096774193637
2023-03-26T08:46:22.000Z,19.387096774193637
2023-03-26T08:49:04.000Z,19.387096774193637
2023-03-26T08:51:44.000Z,19.29032258064525
2023-03-26T08:54:22.000Z,19.29032258064525
2023-03-26T08:57:05.000Z,19.29032258064525
2023-03-26T08:59:44.000Z,19.29032258064525
2023-03-26T09:02:27.000Z,19.19354838709686
2023-03-26T09:05:09.000Z,19.096774193548473
2023-03-26T09:07:51.000Z,19.19354838709686
2023-03-26T09:10:32.000Z,19.19354838709686
2023-03-26T09:13:14.000Z,19.29032258064525
2023-03-26T09:15:54.000Z,19.096774193548473
2023-03-26T09:18:33.000Z,19.096774193548473
2023-03-26T09:21:15.000Z,19.19354838709686
2023-03-26T09:23:58.000Z,19.29032258064525
2023-03-26T09:26:40.000Z,19.29032258064525
2023-03-26T09:29:20.000Z,19.29032258064525
2023-03-26T09:32:02.000Z,19.29032258064525
2023-03-26T09:34:41.000Z,19.483870967742025
2023-03-26T09:37:25.000Z,19.29032258064525
2023-03-26T09:40:06.000Z,19.29032258064525
2023-03-26T09:42:48.000Z,19.387096774193637
2023-03-26T09:45:29.000Z,19.29032258064525
2023-03-26T09:48:09.000Z,19.29032258064525
2023-03-26T09:50:49.000Z,19.19354838709686
2023-03-26T09:53:31.000Z,19.19354838709686
2023-03-26T09:56:14.000Z,19.19354838709686
2023-03-26T09:58:56.000Z,19.19354838709686
2023-03-26T10:01:39.000Z,19.19354838709686
2023-03-26T10:04:20.000Z,19.29032258064525
2023-03-26T10:07:02.000Z,19.19354838709686
2023-03-26T10:09:42.000Z,19.387096774193637
2023-03-26T10:12:26.000Z,19.29032258064525
2023-03-26T10:15:06.000Z,19.29032258064525
2023-03-26T10:17:50.000Z,19.387096774193637
2023-03-26T10:20:31.000Z,19.29032258064525
2023-03-26T10:23:14.000Z,19.387096774193637
2023-03-26T10:25:57.000Z,19.387096774193637
2023-03-26T10:28:39.000Z,19.29032258064525
2023-03-26T10:31:19.000Z,18.32258064516137
2023-03-26T10:33:57.000Z,18.419354838709758
2023-03-26T10:36:38.000Z,18.903225806451697
2023-03-26T10:39:18.000Z,18.516129032258146
2023-03-26T10:42:00.000Z,17.93548387096782
2023-03-26T10:44:42.000Z,18.032258064516206
2023-03-26T10:47:27.000Z,18.032258064516206
2023-03-26T10:50:10.000Z,18.129032258064594
2023-03-26T10:52:50.000Z,18.225806451612982
2023-03-26T10:55:37.000Z,18.32258064516137
2023-03-26T10:58:19.000Z,18.129032258064594
2023-03-26T11:01:01.000Z,18.32258064516137
2023-03-26T11:03:42.000Z,18.32258064516137
2023-03-26T11:06:24.000Z,18.225806451612982
2023-03-26T11:09:06.000Z,18.225806451612982
2023-03-26T11:11:45.000Z,18.32258064516137
2023-03-26T11:14:26.000Z,18.32258064516137
2023-03-26T11:17:06.000Z,18.129032258064594
2023-03-26T11:19:49.000Z,18.032258064516206
2023-03-26T11:22:31.000Z,18.032258064516206
2023-03-26T11:25:15.000Z,18.032258064516206
2023-03-26T11:27:56.000Z,18.129032258064594
2023-03-26T11:30:38.000Z,18.129032258064594
2023-03-26T11:33:19.000Z,18.225806451612982
2023-03-26T11:36:01.000Z,18.225806451612982
2023-03-26T11:38:44.000Z,18.32258064516137
2023-03-26T11:41:26.000Z,18.419354838709758
2023-03-26T11:44:06.000Z,18.516129032258146
2023-03-26T11:46:45.000Z,18.419354838709758
2023-03-26T11:49:25.000Z,18.32258064516137
2023-03-26T11:52:05.000Z,18.516129032258146
2023-03-26T11:54:43.000Z,18.516129032258146
2023-03-26T11:57:25.000Z,18.70967741935492
2023-03-26T12:00:02.000Z,18.516129032258146
2023-03-26T12:02:43.000Z,18.516129032258146
2023-03-26T12:05:26.000Z,18.516129032258146
2023-03-26T12:08:08.000Z,18.419354838709758
2023-03-26T12:10:51.000Z,18.419354838709758
2023-03-26T12:13:36.000Z,18.419354838709758
2023-03-26T12:16:19.000Z,18.419354838709758
2023-03-26T12:19:00.000Z,18.419354838709758
2023-03-26T12:21:44.000Z,18.419354838709758
2023-03-26T12:24:26.000Z,18.516129032258146
2023-03-26T12:27:10.000Z,18.612903225806534
2023-03-26T12:29:52.000Z,18.612903225806534
2023-03-26T12:32:36.000Z,18.419354838709758
2023-03-26T12:35:18.000Z,18.419354838709758
2023-03-26T12:38:01.000Z,18.32258064516137
2023-03-26T12:38:01.000Z,18.32258064516137
2023-03-26T12:40:43.000Z,18.225806451612982
2023-03-26T12:40:43.000Z,18.225806451612982
2023-03-26T12:43:26.000Z,18.225806451612982
2023-03-26T12:43:26.000Z,18.225806451612982
2023-03-26T12:46:10.000Z,18.419354838709758
2023-03-26T12:46:10.000Z,18.419354838709758
2023-03-26T12:48:52.000Z,18.419354838709758
2023-03-26T12:51:33.000Z,18.419354838709758
2023-03-26T12:54:14.000Z,18.419354838709758
2023-03-26T12:56:58.000Z,18.419354838709758
2023-03-26T12:59:43.000Z,18.516129032258146
2023-03-26T13:02:25.000Z,18.32258064516137
2023-03-26T13:05:08.000Z,18.32258064516137
2023-03-26T13:07:53.000Z,18.32258064516137
2023-03-26T13:10:37.000Z,18.32258064516137
2023-03-26T13:13:19.000Z,18.32258064516137
2023-03-26T13:16:00.000Z,18.32258064516137
2023-03-26T13:18:43.000Z,18.419354838709758
2023-03-26T13:21:26.000Z,18.419354838709758
2023-03-26T13:24:10.000Z,18.516129032258146
2023-03-26T13:26:52.000Z,18.419354838709758
2023-03-26T13:29:36.000Z,18.419354838709758
2023-03-26T13:32:19.000Z,18.32258064516137
2023-03-26T13:35:01.000Z,18.419354838709758
2023-03-26T13:37:44.000Z,18.419354838709758
2023-03-26T13:40:27.000Z,18.419354838709758
2023-03-26T13:43:09.000Z,18.516129032258146
2023-03-26T13:45:52.000Z,18.516129032258146
2023-03-26T13:48:36.000Z,18.516129032258146
2023-03-26T13:51:17.000Z,18.70967741935492
2023-03-26T13:53:58.000Z,18.80645161290331
2023-03-26T13:56:42.000Z,18.903225806451697
2023-03-26T13:59:25.000Z,18.70967741935492
2023-03-26T14:02:07.000Z,18.70967741935492
2023-03-26T14:04:49.000Z,18.80645161290331
2023-03-26T14:07:32.000Z,18.516129032258146
2023-03-26T14:10:14.000Z,18.419354838709758
2023-03-26T14:12:55.000Z,18.419354838709758
2023-03-26T14:15:38.000Z,18.516129032258146
2023-03-26T14:18:20.000Z,18.612903225806534
2023-03-26T14:21:02.000Z,18.516129032258146
2023-03-26T14:23:43.000Z,18.419354838709758
2023-03-26T14:26:29.000Z,18.32258064516137
2023-03-26T14:29:10.000Z,18.419354838709758
2023-03-26T14:31:51.000Z,18.032258064516206
2023-03-26T14:34:37.000Z,18.225806451612982
2023-03-26T14:37:20.000Z,18.516129032258146
2023-03-26T14:40:06.000Z,18.516129032258146
2023-03-26T14:42:47.000Z,18.612903225806534
2023-03-26T14:45:29.000Z,18.419354838709758
2023-03-26T14:48:11.000Z,18.516129032258146
2023-03-26T14:50:52.000Z,18.516129032258146
2023-03-26T14:53:36.000Z,18.80645161290331
2023-03-26T14:56:17.000Z,18.80645161290331
2023-03-26T14:58:59.000Z,18.80645161290331
2023-03-26T15:01:42.000Z,18.80645161290331
2023-03-26T15:04:25.000Z,18.70967741935492
2023-03-26T15:07:07.000Z,18.903225806451697
2023-03-26T15:09:52.000Z,18.903225806451697
2023-03-26T15:12:38.000Z,19.096774193548473
2023-03-26T15:15:18.000Z,19.29032258064525
2023-03-26T15:18:00.000Z,19.29032258064525
2023-03-26T15:20:41.000Z,19.19354838709686
2023-03-26T15:23:25.000Z,19.19354838709686
2023-03-26T15:26:10.000Z,18.903225806451697
2023-03-26T15:28:53.000Z,18.903225806451697
2023-03-26T15:31:36.000Z,19.000000000000085
2023-03-26T15:34:16.000Z,18.903225806451697
2023-03-26T15:36:57.000Z,18.80645161290331
2023-03-26T15:39:38.000Z,19.000000000000085
2023-03-26T15:42:22.000Z,18.80645161290331
2023-03-26T15:45:04.000Z,18.70967741935492
2023-03-26T15:47:49.000Z,18.516129032258146
2023-03-26T15:50:33.000Z,18.903225806451697
2023-03-26T15:53:14.000Z,19.000000000000085
2023-03-26T15:55:55.000Z,19.29032258064525
2023-03-26T15:58:38.000Z,19.096774193548473
2023-03-26T16:01:19.000Z,19.580645161290413
2023-03-26T16:04:02.000Z,19.580645161290413
2023-03-26T16:06:44.000Z,18.70967741935492
2023-03-26T16:09:26.000Z,18.70967741935492
2023-03-26T16:12:06.000Z,18.80645161290331
2023-03-26T16:14:50.000Z,19.000000000000085
2023-03-26T16:17:31.000Z,19.483870967742025
2023-03-26T16:20:14.000Z,19.483870967742025
2023-03-26T16:22:57.000Z,19.29032258064525
2023-03-26T16:25:41.000Z,19.483870967742025
2023-03-26T16:28:28.000Z,19.483870967742025
2023-03-26T16:31:10.000Z,19.29032258064525
2023-03-26T16:34:00.000Z,19.29032258064525
2023-03-26T16:36:44.000Z,19.19354838709686
2023-03-26T16:39:28.000Z,19.29032258064525
2023-03-26T16:42:09.000Z,19.29032258064525
2023-03-26T16:44:51.000Z,19.096774193548473
2023-03-26T16:47:38.000Z,19.096774193548473
2023-03-26T16:50:22.000Z,19.096774193548473
2023-03-26T16:53:06.000Z,19.19354838709686
2023-03-26T16:55:46.000Z,19.19354838709686
2023-03-26T16:58:38.000Z,19.19354838709686
2023-03-26T17:01:20.000Z,19.19354838709686
2023-03-26T17:04:04.000Z,19.29032258064525
2023-03-26T17:06:45.000Z,19.096774193548473
2023-03-26T17:09:31.000Z,19.29032258064525
2023-03-26T17:12:16.000Z,18.903225806451697
2023-03-26T17:15:00.000Z,19.096774193548473
2023-03-26T17:17:42.000Z,19.096774193548473
2023-03-26T17:20:28.000Z,19.19354838709686
2023-03-26T17:23:10.000Z,19.19354838709686
2023-03-26T17:25:52.000Z,19.000000000000085
2023-03-26T17:28:36.000Z,19.19354838709686
2023-03-26T17:31:20.000Z,19.19354838709686
2023-03-26T17:34:13.000Z,19.19354838709686
2023-03-26T17:37:05.000Z,19.000000000000085
2023-03-26T17:39:51.000Z,19.19354838709686
2023-03-26T17:42:35.000Z,19.19354838709686
2023-03-26T17:45:20.000Z,19.19354838709686
2023-03-26T17:48:03.000Z,18.70967741935492
2023-03-26T17:50:42.000Z,18.903225806451697
2023-03-26T17:53:24.000Z,18.903225806451697
2023-03-26T17:56:07.000Z,18.80645161290331
2023-03-26T17:58:49.000Z,18.70967741935492
2023-03-26T18:01:36.000Z,18.70967741935492
2023-03-26T18:04:16.000Z,18.516129032258146
2023-03-26T18:06:59.000Z,18.70967741935492
2023-03-26T18:09:42.000Z,18.32258064516137
2023-03-26T18:12:27.000Z,18.612903225806534
2023-03-26T18:15:10.000Z,18.80645161290331
2023-03-26T18:17:51.000Z,18.80645161290331
2023-03-26T18:20:33.000Z,18.70967741935492
2023-03-26T18:23:16.000Z,18.70967741935492
2023-03-26T18:26:00.000Z,18.225806451612982
2023-03-26T18:28:44.000Z,18.032258064516206
2023-03-26T18:31:27.000Z,18.032258064516206
2023-03-26T18:34:08.000Z,18.129032258064594
2023-03-26T18:36:50.000Z,18.225806451612982
2023-03-26T18:39:35.000Z,19.19354838709686
2023-03-26T18:42:19.000Z,18.80645161290331
2023-03-26T18:45:02.000Z,18.225806451612982
2023-03-26T18:47:40.000Z,18.612903225806534
2023-03-26T18:50:21.000Z,18.612903225806534
2023-03-26T18:53:17.000Z,18.70967741935492
2023-03-26T18:56:01.000Z,18.516129032258146
2023-03-26T18:58:44.000Z,18.516129032258146
2023-03-26T19:01:28.000Z,19.483870967742025
2023-03-26T19:04:10.000Z,19.096774193548473
2023-03-26T19:06:53.000Z,20.54838709677429
2023-03-26T19:09:37.000Z,18.80645161290331
2023-03-26T19:12:18.000Z,19.387096774193637
2023-03-26T19:15:04.000Z,19.387096774193637
2023-03-26T19:17:50.000Z,19.29032258064525
2023-03-26T19:20:31.000Z,19.387096774193637
2023-03-26T19:23:12.000Z,19.483870967742025
2023-03-26T19:25:55.000Z,19.387096774193637
2023-03-26T19:28:45.000Z,19.29032258064525
2023-03-26T19:31:25.000Z,19.29032258064525
2023-03-26T19:34:09.000Z,19.29032258064525
2023-03-26T19:36:51.000Z,19.387096774193637
2023-03-26T19:39:38.000Z,20.16129032258074
2023-03-26T19:42:21.000Z,19.580645161290413
2023-03-26T19:45:05.000Z,20.354838709677516
2023-03-26T19:47:46.000Z,19.870967741935576
2023-03-26T19:50:30.000Z,19.870967741935576
2023-03-26T19:53:11.000Z,20.16129032258074
2023-03-26T19:55:53.000Z,19.29032258064525
2023-03-26T19:58:34.000Z,20.064516129032352
2023-03-26T20:01:18.000Z,19.967741935483964
2023-03-26T20:04:02.000Z,21.51612903225817
2023-03-26T20:06:42.000Z,22.193548387096886
2023-03-26T20:09:25.000Z,20.16129032258074
2023-03-26T20:12:08.000Z,20.354838709677516
2023-03-26T20:14:54.000Z,20.064516129032352
2023-03-26T20:17:38.000Z,20.064516129032352
2023-03-26T20:20:20.000Z,20.354838709677516
2023-03-26T20:23:03.000Z,20.451612903225904
2023-03-26T20:25:45.000Z,19.77419354838719
2023-03-26T20:28:29.000Z,20.258064516129128
2023-03-26T20:31:17.000Z,20.54838709677429
2023-03-26T20:34:00.000Z,20.54838709677429
2023-03-26T20:36:45.000Z,21.225806451613007
2023-03-26T20:39:28.000Z,20.838709677419455
2023-03-26T20:42:11.000Z,20.838709677419455
2023-03-26T20:44:52.000Z,21.51612903225817
2023-03-26T20:47:42.000Z,21.225806451613007
2023-03-26T20:50:27.000Z,21.61290322580656
2023-03-26T20:53:11.000Z,21.12903225806462
2023-03-26T20:55:51.000Z,21.03225806451623
2023-03-26T20:58:35.000Z,20.935483870967843
2023-03-26T21:01:18.000Z,20.64516129032268
2023-03-26T21:04:00.000Z,20.64516129032268
2023-03-26T21:06:43.000Z,20.54838709677429
2023-03-26T21:09:24.000Z,20.54838709677429
2023-03-26T21:12:05.000Z,20.54838709677429
2023-03-26T21:14:45.000Z,20.64516129032268
2023-03-26T21:17:36.000Z,20.64516129032268
2023-03-26T21:20:18.000Z,20.64516129032268
2023-03-26T21:23:00.000Z,20.451612903225904
2023-03-26T21:25:42.000Z,20.54838709677429
2023-03-26T21:28:26.000Z,20.741935483871067
2023-03-26T21:31:10.000Z,20.741935483871067
2023-03-26T21:33:52.000Z,20.741935483871067
2023-03-26T21:36:42.000Z,20.838709677419455
2023-03-26T21:39:24.000Z,20.935483870967843
2023-03-26T21:42:05.000Z,20.935483870967843
2023-03-26T21:44:48.000Z,20.935483870967843
2023-03-26T21:47:33.000Z,20.935483870967843
2023-03-26T21:50:15.000Z,21.225806451613007
2023-03-26T21:52:59.000Z,21.225806451613007
2023-03-26T21:55:43.000Z,21.322580645161395
2023-03-26T21:58:26.000Z,21.12903225806462
2023-03-26T22:01:14.000Z,21.322580645161395
2023-03-26T22:03:55.000Z,21.225806451613007
2023-03-26T22:06:38.000Z,21.225806451613007
2023-03-26T22:09:18.000Z,21.03225806451623
2023-03-26T22:12:01.000Z,20.838709677419455
2023-03-26T22:14:42.000Z,21.03225806451623
2023-03-26T22:17:26.000Z,20.838709677419455
2023-03-26T22:20:09.000Z,21.12903225806462
2023-03-26T22:22:51.000Z,21.12903225806462
2023-03-26T22:25:43.000Z,21.322580645161395
2023-03-26T22:28:25.000Z,21.12903225806462
2023-03-26T22:31:08.000Z,21.322580645161395
2023-03-26T22:33:51.000Z,21.12903225806462
2023-03-26T22:36:31.000Z,21.903225806451722
2023-03-26T22:39:19.000Z,22.677419354838825
2023-03-26T22:42:03.000Z,21.61290322580656
2023-03-26T22:44:44.000Z,21.225806451613007
2023-03-26T22:47:26.000Z,21.225806451613007
2023-03-26T22:50:09.000Z,21.51612903225817
2023-03-26T22:52:55.000Z,21.225806451613007
2023-03-26T22:55:37.000Z,21.419354838709783
2023-03-26T22:58:18.000Z,21.419354838709783
2023-03-26T23:01:04.000Z,21.51612903225817
2023-03-26T23:03:44.000Z,21.51612903225817
2023-03-26T23:06:29.000Z,21.322580645161395
2023-03-26T23:09:10.000Z,21.12903225806462
2023-03-26T23:11:52.000Z,21.419354838709783
2023-03-26T23:14:37.000Z,21.225806451613007
2023-03-26T23:17:20.000Z,21.419354838709783
2023-03-26T23:20:04.000Z,21.225806451613007
2023-03-26T23:22:44.000Z,16.774193548387164
2023-03-26T23:25:26.000Z,19.19354838709686
2023-03-26T23:28:10.000Z,19.19354838709686
2023-03-26T23:30:57.000Z,19.870967741935576
2023-03-26T23:33:40.000Z,19.77419354838719
2023-03-26T23:36:20.000Z,10.290322580645174
2023-03-26T23:39:04.000Z,8.64516129032258
2023-03-26T23:41:53.000Z,10.290322580645174
2023-03-26T23:44:37.000Z,12.32258064516132
2023-03-26T23:47:21.000Z,11.161290322580665
2023-03-26T23:50:03.000Z,10.580645161290338
2023-03-26T23:52:44.000Z,8.451612903225804
2023-03-26T23:55:27.000Z,17.064516129032327
2023-03-26T23:58:14.000Z,10.290322580645174
